Terminal Aerodrome Forecast
Issued by NWS

Home | Current Version | Previous Version | Text Only | Print | Product List | Glossary On
Versions: 1 2 3 4 5 6 7 8 9 10 11 12 13 14 15 16 17 18 19
889
FTUS46 KSEW 271738
TAFCLM
TAF
KCLM 271738Z 2718/2818 03005KT P6SM BKN013 BKN250
     FM271900 35006KT P6SM SCT250
     FM280000 31007KT P6SM SCT250
     FM280300 28009KT P6SM SCT250
     FM281400 26006KT P6SM SCT009
      TEMPO 2814/2818 BKN009=

USA.gov is the U.S. government's official web portal to all federal, state and local government web resources and services.